createdAt,value
2018-07-22T00:01:55.836Z,62.53
2018-07-22T00:04:26.608Z,62.50
2018-07-22T00:06:59.435Z,62.90
2018-07-22T00:09:29.353Z,62.87
2018-07-22T00:11:59.280Z,62.96
2018-07-22T00:14:29.816Z,63.20
2018-07-22T00:17:00.793Z,62.93
2018-07-22T00:19:31.633Z,62.38
2018-07-22T00:22:02.484Z,62.63
2018-07-22T00:24:33.326Z,62.40
2018-07-22T00:27:04.728Z,62.47
2018-07-22T00:29:35.629Z,63.16
2018-07-22T00:32:06.260Z,64.13
2018-07-22T00:34:36.780Z,64.61
2018-07-22T00:37:07.698Z,64.70
2018-07-22T00:39:39.436Z,65.02
2018-07-22T00:42:09.357Z,65.65
2018-07-22T00:44:40.738Z,66.33
2018-07-22T00:47:11.975Z,66.52
2018-07-22T00:49:42.617Z,66.56
2018-07-22T00:52:13.487Z,66.93
2018-07-22T00:54:44.415Z,67.19
2018-07-22T00:57:15.833Z,67.51
2018-07-22T00:59:46.672Z,67.56
2018-07-22T01:02:17.848Z,67.26
2018-07-22T01:04:48.684Z,67.51
2018-07-22T01:07:19.569Z,67.81
2018-07-22T01:09:50.424Z,67.58
2018-07-22T01:12:22.002Z,67.54
2018-07-22T01:14:53.393Z,67.83
2018-07-22T01:17:24.019Z,67.45
2018-07-22T01:19:54.739Z,67.15
2018-07-22T01:22:25.641Z,67.13
2018-07-22T01:24:56.519Z,67.75
2018-07-22T01:27:27.416Z,67.34
2018-07-22T01:29:58.763Z,67.24
2018-07-22T01:32:29.679Z,67.50
2018-07-22T01:35:00.522Z,67.58
2018-07-22T01:37:31.485Z,67.96
2018-07-22T01:40:02.621Z,67.26
2018-07-22T01:42:33.414Z,67.56
2018-07-22T01:45:04.874Z,68.07
2018-07-22T01:47:35.708Z,67.43
2018-07-22T01:50:07.073Z,67.48
2018-07-22T01:52:37.697Z,67.71
2018-07-22T01:55:08.729Z,67.58
2018-07-22T01:57:39.631Z,67.77
2018-07-22T02:00:10.436Z,68.07
2018-07-22T02:02:41.775Z,67.54
2018-07-22T02:05:12.714Z,67.95
2018-07-22T02:07:43.600Z,68.02
2018-07-22T02:10:16.354Z,68.41
2018-07-22T02:12:46.390Z,68.25
2018-07-22T02:15:16.745Z,68.58
2018-07-22T02:17:47.705Z,68.39
2018-07-22T02:20:18.552Z,68.63
2018-07-22T02:22:49.585Z,68.35
2018-07-22T02:25:20.440Z,68.67
2018-07-22T02:27:51.773Z,68.60
2018-07-22T02:30:22.651Z,69.05
2018-07-22T02:32:53.516Z,68.99
2018-07-22T02:35:25.019Z,69.36
2018-07-22T02:37:55.756Z,69.35
2018-07-22T02:40:26.629Z,69.41
2018-07-22T02:42:57.867Z,69.45
2018-07-22T02:45:28.710Z,69.08
2018-07-22T02:47:59.679Z,69.05
2018-07-22T02:50:30.562Z,69.08
2018-07-22T02:53:01.485Z,69.21
2018-07-22T02:55:32.369Z,69.13
2018-07-22T02:58:03.790Z,69.23
2018-07-22T03:00:34.609Z,69.42
2018-07-22T03:03:05.625Z,69.45
2018-07-22T03:05:36.532Z,69.61
2018-07-22T03:08:07.503Z,69.86
2018-07-22T03:10:38.633Z,70.12
2018-07-22T03:13:09.491Z,70.05
2018-07-22T03:15:40.667Z,69.81
2018-07-22T03:18:11.908Z,70.18
2018-07-22T03:20:42.600Z,69.71
2018-07-22T03:23:13.453Z,69.75
2018-07-22T03:25:44.837Z,69.62
2018-07-22T03:28:15.688Z,70.36
2018-07-22T03:30:46.563Z,69.99
2018-07-22T03:33:17.469Z,70.33
2018-07-22T03:35:48.430Z,70.17
2018-07-22T03:38:19.310Z,70.16
2018-07-22T03:40:50.722Z,70.39
2018-07-22T03:43:21.684Z,69.99
2018-07-22T03:45:52.567Z,70.10
2018-07-22T03:48:23.524Z,70.65
2018-07-22T03:50:54.337Z,70.79
2018-07-22T03:53:26.393Z,71.05
2018-07-22T03:55:56.329Z,71.45
2018-07-22T03:58:27.409Z,71.43
2018-07-22T04:00:58.698Z,71.44
2018-07-22T04:03:29.491Z,71.40
2018-07-22T04:06:00.635Z,71.26
2018-07-22T04:08:31.825Z,71.83
2018-07-22T04:11:02.658Z,71.79
2018-07-22T04:13:33.538Z,71.77
2018-07-22T04:16:04.386Z,72.46
2018-07-22T04:18:39.757Z,72.64
2018-07-22T04:21:09.649Z,72.97
2018-07-22T04:23:39.631Z,72.79
2018-07-22T04:26:09.491Z,73.01
2018-07-22T04:28:39.393Z,72.87
2018-07-22T04:31:10.802Z,72.79
2018-07-22T04:33:41.686Z,72.60
2018-07-22T04:36:12.513Z,72.56
2018-07-22T04:38:43.642Z,73.48
2018-07-22T04:41:14.541Z,73.00
2018-07-22T04:43:48.918Z,73.08
2018-07-22T04:46:19.401Z,72.82
2018-07-22T04:48:49.937Z,72.78
2018-07-22T04:51:20.441Z,72.99
2018-07-22T04:53:50.342Z,73.42
2018-07-22T04:56:20.810Z,73.60
2018-07-22T04:58:51.688Z,73.99
2018-07-22T05:01:22.512Z,73.88
2018-07-22T05:03:53.522Z,73.32
2018-07-22T05:06:24.448Z,74.17
2018-07-22T05:08:55.388Z,74.21
2018-07-22T05:11:26.686Z,74.06
2018-07-22T05:13:57.577Z,73.86
2018-07-22T05:16:28.443Z,75.28
2018-07-22T05:18:59.367Z,73.68
2018-07-22T05:21:30.751Z,73.35
2018-07-22T05:24:01.686Z,73.18
2018-07-22T05:26:33.503Z,73.56
2018-07-22T05:29:03.493Z,72.67
2018-07-22T05:31:35.005Z,73.28
2018-07-22T05:34:05.657Z,73.04
2018-07-22T05:36:36.455Z,73.61
2018-07-22T05:39:11.101Z,72.94
2018-07-22T05:41:42.268Z,72.80
2018-07-22T05:44:12.221Z,73.26
2018-07-22T05:46:42.500Z,73.17
2018-07-22T05:49:12.394Z,72.78
2018-07-22T05:51:42.681Z,72.73
2018-07-22T05:54:13.601Z,71.97
2018-07-22T05:56:44.521Z,72.31
2018-07-22T05:59:15.451Z,72.68
2018-07-22T06:01:46.478Z,72.24
2018-07-22T06:04:17.497Z,72.07
2018-07-22T06:06:48.410Z,71.67
2018-07-22T06:09:18.347Z,71.00
2018-07-22T06:11:49.649Z,70.26
2018-07-22T06:14:20.671Z,69.26
2018-07-22T06:16:55.241Z,69.57
2018-07-22T06:19:25.242Z,69.32
2018-07-22T06:21:55.284Z,69.08
2018-07-22T06:24:25.197Z,68.37
2018-07-22T06:26:55.749Z,69.12
2018-07-22T06:29:26.612Z,68.21
2018-07-22T06:31:57.282Z,68.01
2018-07-22T06:34:27.804Z,68.33
2018-07-22T06:36:59.293Z,67.93
2018-07-22T06:39:29.830Z,67.68
2018-07-22T06:42:00.646Z,66.83
2018-07-22T06:44:31.522Z,66.39
2018-07-22T06:47:02.463Z,66.48
2018-07-22T06:49:33.440Z,66.10
2018-07-22T06:52:04.727Z,65.87
2018-07-22T06:54:35.549Z,65.79
2018-07-22T06:57:06.490Z,65.25
2018-07-22T06:59:37.517Z,64.34
2018-07-22T07:02:08.494Z,65.39
2018-07-22T07:04:39.884Z,64.01
2018-07-22T07:07:10.730Z,63.31
2018-07-22T07:09:41.560Z,63.07
2018-07-22T07:12:12.886Z,62.49
2018-07-22T07:14:43.695Z,62.42
2018-07-22T07:17:14.563Z,62.50
2018-07-22T07:19:45.377Z,62.42
2018-07-22T07:22:16.808Z,61.19
2018-07-22T07:24:49.032Z,61.03
2018-07-22T07:27:18.854Z,60.44
2018-07-22T07:29:49.591Z,60.19
2018-07-22T07:32:20.485Z,61.05
2018-07-22T07:34:51.430Z,60.77
2018-07-22T07:37:22.824Z,60.60
2018-07-22T07:39:53.563Z,59.71
2018-07-22T07:42:24.516Z,60.65
2018-07-22T07:44:55.570Z,59.29
2018-07-22T07:47:26.439Z,59.99
2018-07-22T07:49:57.727Z,59.03
2018-07-22T07:52:28.596Z,58.90
2018-07-22T07:54:59.518Z,57.46
2018-07-22T07:57:30.395Z,58.61
2018-07-22T08:00:02.379Z,58.31
2018-07-22T08:02:32.685Z,57.75
2018-07-22T08:05:03.537Z,58.00
2018-07-22T08:07:34.474Z,58.05
2018-07-22T08:10:06.361Z,56.33
2018-07-22T08:12:36.604Z,56.24
2018-07-22T08:15:07.749Z,55.61
2018-07-22T08:17:38.627Z,55.71
2018-07-22T08:20:08.527Z,56.01
2018-07-22T08:22:39.390Z,54.58
2018-07-22T08:25:10.787Z,55.21
2018-07-22T08:27:41.693Z,54.39
2018-07-22T08:30:13.454Z,54.76
2018-07-22T08:32:43.407Z,54.41
2018-07-22T08:35:14.692Z,52.76
2018-07-22T08:37:45.537Z,53.62
2018-07-22T08:40:16.398Z,52.45
2018-07-22T08:42:47.765Z,51.57
2018-07-22T08:45:19.579Z,51.57
2018-07-22T08:47:49.644Z,51.10
2018-07-22T08:50:20.546Z,52.15
2018-07-22T08:52:51.599Z,51.89
2018-07-22T08:55:22.611Z,50.66
2018-07-22T08:57:53.477Z,49.88
2018-07-22T09:00:25.051Z,50.06
2018-07-22T09:02:55.753Z,49.64
2018-07-22T09:05:27.207Z,50.22
2018-07-22T09:07:57.376Z,49.53
2018-07-22T09:10:28.293Z,49.12
2018-07-22T09:12:59.733Z,48.29
2018-07-22T09:15:30.532Z,48.60
2018-07-22T09:18:01.509Z,48.76
2018-07-22T09:20:32.572Z,48.19
2018-07-22T09:23:05.591Z,47.13
2018-07-22T09:25:35.447Z,43.88
2018-07-22T09:28:05.322Z,44.45
2018-07-22T09:30:37.850Z,42.23
2018-07-22T09:33:07.813Z,41.86
2018-07-22T09:35:38.736Z,42.05
2018-07-22T09:38:09.657Z,42.71
2018-07-22T09:40:40.634Z,40.39
2018-07-22T09:43:11.485Z,41.18
2018-07-22T09:45:42.541Z,40.26
2018-07-22T09:48:15.243Z,39.29
2018-07-22T09:50:45.356Z,40.55
2018-07-22T09:53:15.934Z,39.85
2018-07-22T09:55:46.632Z,39.43
2018-07-22T09:58:17.600Z,38.97
2018-07-22T10:00:54.979Z,38.68
2018-07-22T10:03:26.692Z,39.01
2018-07-22T10:05:56.616Z,38.41
2018-07-22T10:08:26.846Z,39.19
2018-07-22T10:10:56.763Z,36.21
2018-07-22T10:13:26.710Z,38.16
2018-07-22T10:15:56.543Z,35.33
2018-07-22T10:18:26.463Z,36.09
2018-07-22T10:20:56.372Z,35.39
2018-07-22T10:23:27.436Z,35.89
2018-07-22T10:25:58.360Z,36.75
2018-07-22T10:28:29.869Z,36.23
2018-07-22T10:31:00.597Z,35.65
2018-07-22T10:33:31.735Z,35.96
2018-07-22T10:36:02.602Z,35.96
2018-07-22T10:38:33.392Z,34.04
2018-07-22T10:41:04.336Z,33.71
2018-07-22T10:43:36.729Z,34.00
2018-07-22T10:46:07.059Z,35.53
2018-07-22T10:48:37.547Z,34.84
2018-07-22T10:51:08.504Z,33.43
2018-07-22T10:53:39.382Z,32.92
2018-07-22T10:56:10.656Z,32.30
2018-07-22T10:58:41.495Z,32.74
2018-07-22T11:01:12.469Z,33.21
2018-07-22T11:03:43.433Z,32.36
2018-07-22T11:06:14.375Z,31.67
2018-07-22T11:08:45.684Z,30.75
2018-07-22T11:11:17.461Z,31.26
2018-07-22T11:13:47.368Z,31.47
2018-07-22T11:16:18.493Z,31.70
2018-07-22T11:18:49.417Z,31.98
2018-07-22T11:21:20.789Z,32.07
2018-07-22T11:23:51.647Z,31.33
2018-07-22T11:26:22.480Z,31.14
2018-07-22T11:28:53.416Z,29.68
2018-07-22T11:31:25.205Z,29.82
2018-07-22T11:33:55.754Z,29.40
2018-07-22T11:36:26.558Z,29.62
2018-07-22T11:38:57.376Z,30.05
2018-07-22T11:41:27.315Z,29.47
2018-07-22T11:43:59.356Z,29.43
2018-07-22T11:46:29.377Z,29.84
2018-07-22T11:49:00.729Z,28.83
2018-07-22T11:51:31.544Z,29.38
2018-07-22T11:54:02.452Z,29.45
2018-07-22T11:56:33.406Z,29.92
2018-07-22T11:59:04.614Z,29.15
2018-07-22T12:01:35.674Z,29.77
2018-07-22T12:04:06.717Z,28.95
2018-07-22T12:06:37.573Z,29.54
2018-07-22T12:09:10.794Z,28.15
2018-07-22T12:11:40.629Z,29.65
2018-07-22T12:14:10.452Z,29.86
2018-07-22T12:16:41.314Z,29.53
2018-07-22T12:19:12.763Z,28.89
2018-07-22T12:21:43.538Z,28.23
2018-07-22T12:24:14.458Z,28.34
2018-07-22T12:26:45.370Z,28.67
2018-07-22T12:29:18.701Z,28.23
2018-07-22T12:31:48.677Z,30.21
2018-07-22T12:34:18.547Z,29.04
2018-07-22T12:36:50.036Z,29.55
2018-07-22T12:39:19.915Z,29.54
2018-07-22T12:41:50.617Z,30.28
2018-07-22T12:44:20.510Z,29.99
2018-07-22T12:46:51.376Z,29.62
2018-07-22T12:49:22.758Z,28.85
2018-07-22T12:51:53.545Z,29.02
2018-07-22T12:54:24.395Z,29.56
2018-07-22T12:56:55.695Z,28.52
2018-07-22T12:59:26.545Z,29.04
2018-07-22T13:01:57.388Z,29.38
2018-07-22T13:04:28.366Z,29.14
2018-07-22T13:06:59.736Z,28.47
2018-07-22T13:09:30.602Z,29.02
2018-07-22T13:12:01.496Z,27.47
2018-07-22T13:14:32.720Z,27.79
2018-07-22T13:17:03.509Z,27.26
2018-07-22T13:19:34.420Z,28.26
2018-07-22T13:22:05.457Z,27.46
2018-07-22T13:24:36.361Z,28.73
2018-07-22T13:27:07.434Z,27.08
2018-07-22T13:29:38.341Z,28.52
2018-07-22T13:32:10.057Z,28.51
2018-07-22T13:34:40.773Z,28.27
2018-07-22T13:37:11.561Z,26.87
2018-07-22T13:39:42.387Z,27.80
2018-07-22T13:42:14.796Z,27.13
2018-07-22T13:44:45.013Z,27.71
2018-07-22T13:47:15.686Z,27.55
2018-07-22T13:49:46.490Z,28.44
2018-07-22T13:52:17.493Z,28.53
2018-07-22T13:54:48.580Z,28.62
2018-07-22T13:57:19.395Z,27.20
2018-07-22T13:59:50.471Z,27.21
2018-07-22T14:02:21.318Z,27.12
2018-07-22T14:04:52.735Z,26.86
2018-07-22T14:07:23.585Z,27.69
2018-07-22T14:09:54.399Z,27.04
2018-07-22T14:12:25.705Z,27.62
2018-07-22T14:14:56.642Z,29.19
2018-07-22T14:17:27.473Z,28.90
2018-07-22T14:19:58.735Z,27.86
2018-07-22T14:22:29.577Z,28.89
2018-07-22T14:25:00.566Z,28.25
2018-07-22T14:27:31.404Z,29.66
2018-07-22T14:30:02.378Z,28.60
2018-07-22T14:32:33.337Z,29.96
2018-07-22T14:35:04.372Z,29.54
2018-07-22T14:37:34.447Z,28.91
2018-07-22T14:40:05.760Z,28.80
2018-07-22T14:42:36.609Z,29.12
2018-07-22T14:45:08.873Z,28.70
2018-07-22T14:47:38.781Z,28.61
2018-07-22T14:50:09.673Z,28.76
2018-07-22T14:52:40.533Z,28.94
2018-07-22T14:55:11.394Z,29.20
2018-07-22T14:57:42.398Z,29.26
2018-07-22T15:00:13.372Z,29.86
2018-07-22T15:02:44.342Z,30.59
2018-07-22T15:05:15.891Z,29.92
2018-07-22T15:07:46.564Z,29.81
2018-07-22T15:10:17.401Z,30.69
2018-07-22T15:12:47.333Z,31.47
2018-07-22T15:15:18.321Z,30.91
2018-07-22T15:17:48.243Z,31.45
2018-07-22T15:20:19.686Z,29.41
2018-07-22T15:22:50.566Z,29.60
2018-07-22T15:25:21.393Z,29.63
2018-07-22T15:27:52.308Z,30.71
2018-07-22T15:30:23.700Z,30.64
2018-07-22T15:32:54.484Z,30.74
2018-07-22T15:35:25.431Z,31.28
2018-07-22T15:37:56.307Z,31.89
2018-07-22T15:40:27.752Z,31.83
2018-07-22T15:42:58.551Z,30.46
2018-07-22T15:45:29.378Z,32.44
2018-07-22T15:48:00.351Z,32.78
2018-07-22T15:50:31.361Z,31.79
2018-07-22T15:53:03.074Z,32.94
2018-07-22T15:55:33.807Z,32.46
2018-07-22T15:58:04.619Z,32.72
2018-07-22T16:00:35.523Z,32.81
2018-07-22T16:03:06.398Z,33.33
2018-07-22T16:05:37.501Z,32.48
2018-07-22T16:08:08.392Z,33.05
2018-07-22T16:10:39.407Z,32.73
2018-07-22T16:13:10.945Z,32.60
2018-07-22T16:15:41.589Z,32.55
2018-07-22T16:18:12.435Z,33.35
2018-07-22T16:20:43.789Z,32.91
2018-07-22T16:23:14.633Z,33.21
2018-07-22T16:25:45.485Z,32.26
2018-07-22T16:28:16.409Z,33.31
2018-07-22T16:30:47.759Z,33.21
2018-07-22T16:33:18.557Z,33.82
2018-07-22T16:35:49.453Z,33.75
2018-07-22T16:38:19.299Z,33.58
2018-07-22T16:40:50.701Z,32.83
2018-07-22T16:43:21.513Z,33.22
2018-07-22T16:45:52.336Z,33.20
2018-07-22T16:48:24.298Z,33.21
2018-07-22T16:50:54.712Z,33.19
2018-07-22T16:53:25.485Z,33.46
2018-07-22T16:55:56.423Z,33.88
2018-07-22T16:58:27.466Z,34.13
2018-07-22T17:00:58.408Z,33.13
2018-07-22T17:03:29.392Z,32.99
2018-07-22T17:06:00.363Z,33.67
2018-07-22T17:08:36.006Z,33.97
2018-07-22T17:11:06.448Z,34.30
2018-07-22T17:13:36.331Z,34.38
2018-07-22T17:16:06.381Z,35.23
2018-07-22T17:18:36.217Z,35.22
2018-07-22T17:21:07.677Z,35.74
2018-07-22T17:23:37.554Z,35.54
2018-07-22T17:26:08.434Z,36.03
2018-07-22T17:28:39.691Z,36.21
2018-07-22T17:31:10.566Z,36.28
2018-07-22T17:33:41.624Z,37.13
2018-07-22T17:36:12.483Z,36.94
2018-07-22T17:38:43.386Z,36.56
2018-07-22T17:41:14.477Z,37.18
2018-07-22T17:43:45.388Z,37.32
2018-07-22T17:46:16.494Z,37.36
2018-07-22T17:48:47.451Z,37.15
2018-07-22T17:51:18.517Z,37.19
2018-07-22T17:53:49.347Z,36.73
2018-07-22T17:56:20.738Z,37.14
2018-07-22T17:58:51.553Z,37.11
2018-07-22T18:01:22.558Z,37.00
2018-07-22T18:03:53.373Z,36.88
2018-07-22T18:06:26.271Z,38.01
2018-07-22T18:08:56.061Z,38.06
2018-07-22T18:11:26.726Z,38.26
2018-07-22T18:13:57.546Z,38.44
2018-07-22T18:16:28.394Z,38.39
2018-07-22T18:19:00.434Z,38.71
2018-07-22T18:21:30.293Z,38.47
2018-07-22T18:24:01.642Z,38.51
2018-07-22T18:26:34.364Z,39.19
2018-07-22T18:29:04.398Z,38.94
2018-07-22T18:31:35.041Z,39.06
2018-07-22T18:34:05.670Z,38.94
2018-07-22T18:36:36.525Z,39.46
2018-07-22T18:39:09.966Z,38.69
2018-07-22T18:41:45.730Z,39.01
2018-07-22T18:44:15.585Z,39.92
2018-07-22T18:46:45.510Z,39.73
2018-07-22T18:49:15.363Z,40.10
2018-07-22T18:51:45.239Z,39.97
2018-07-22T18:54:15.218Z,40.70
2018-07-22T18:56:45.067Z,40.37
2018-07-22T18:59:15.633Z,40.50
2018-07-22T19:01:46.466Z,40.60
2018-07-22T19:04:17.415Z,41.19
2018-07-22T19:06:48.360Z,41.42
2018-07-22T19:09:19.701Z,40.96
2018-07-22T19:11:50.545Z,40.91
2018-07-22T19:14:21.568Z,41.70
2018-07-22T19:16:52.837Z,42.29
2018-07-22T19:19:23.585Z,42.33
2018-07-22T19:21:54.497Z,42.50
2018-07-22T19:24:25.444Z,42.78
2018-07-22T19:26:56.635Z,42.72
2018-07-22T19:29:27.536Z,43.21
2018-07-22T19:31:59.053Z,43.36
2018-07-22T19:34:29.749Z,43.70
2018-07-22T19:37:00.837Z,44.09
2018-07-22T19:39:32.706Z,44.15
2018-07-22T19:42:02.570Z,44.74
2018-07-22T19:44:33.463Z,44.93
2018-07-22T19:47:04.564Z,45.00
2018-07-22T19:49:35.465Z,45.08
2018-07-22T19:52:06.446Z,44.89
2018-07-22T19:54:37.530Z,45.50
2018-07-22T19:57:08.392Z,45.93
2018-07-22T19:59:38.694Z,45.86
2018-07-22T20:02:09.557Z,46.12
2018-07-22T20:04:40.479Z,45.80
2018-07-22T20:07:11.564Z,46.61
2018-07-22T20:09:42.501Z,46.45
2018-07-22T20:12:13.338Z,46.53
2018-07-22T20:14:53.553Z,47.05
2018-07-22T20:17:23.391Z,47.09
2018-07-22T20:19:53.316Z,46.87
2018-07-22T20:22:23.244Z,47.04
2018-07-22T20:24:53.067Z,47.25
2018-07-22T20:27:23.431Z,47.74
2018-07-22T20:29:53.213Z,47.99
2018-07-22T20:32:23.198Z,47.65
2018-07-22T20:34:53.178Z,48.05
2018-07-22T20:37:23.846Z,48.11
2018-07-22T20:39:54.653Z,48.18
2018-07-22T20:42:25.483Z,48.48
2018-07-22T20:44:58.014Z,48.41
2018-07-22T20:47:27.914Z,47.62
2018-07-22T20:49:58.632Z,48.58
2018-07-22T20:52:29.799Z,48.70
2018-07-22T20:55:01.525Z,48.82
2018-07-22T20:57:31.462Z,49.22
2018-07-22T21:00:02.311Z,48.90
2018-07-22T21:02:33.806Z,49.72
2018-07-22T21:05:04.895Z,49.73
2018-07-22T21:07:35.788Z,49.82
2018-07-22T21:10:06.683Z,50.68
2018-07-22T21:12:53.103Z,50.88
2018-07-22T21:15:23.254Z,50.73
2018-07-22T21:17:53.724Z,51.12
2018-07-22T21:20:23.708Z,51.96
2018-07-22T21:22:53.967Z,51.87
2018-07-22T21:25:24.101Z,52.25
2018-07-22T21:27:54.485Z,52.08
2018-07-22T21:30:24.268Z,51.93
2018-07-22T21:32:54.071Z,52.75
2018-07-22T21:35:24.445Z,52.38
2018-07-22T21:37:54.346Z,53.01
2018-07-22T21:40:24.219Z,52.77
2018-07-22T21:42:54.224Z,52.80
2018-07-22T21:45:24.101Z,52.74
2018-07-22T21:47:54.045Z,53.45
2018-07-22T21:50:23.985Z,53.59
2018-07-22T21:52:54.330Z,53.45
2018-07-22T21:55:24.223Z,54.17
2018-07-22T21:57:54.686Z,54.18
2018-07-22T22:00:31.995Z,54.40
2018-07-22T22:03:03.616Z,54.35
2018-07-22T22:05:33.481Z,54.04
2018-07-22T22:08:03.309Z,54.18
2018-07-22T22:10:33.312Z,54.20
2018-07-22T22:13:03.117Z,54.29
2018-07-22T22:15:33.783Z,54.46
2018-07-22T22:18:04.679Z,54.78
2018-07-22T22:20:34.713Z,54.86
2018-07-22T22:23:04.505Z,54.98
2018-07-22T22:25:35.477Z,54.58
2018-07-22T22:28:06.466Z,55.21
2018-07-22T22:30:37.393Z,54.96
2018-07-22T22:33:08.313Z,54.97
2018-07-22T22:35:39.700Z,54.97
2018-07-22T22:38:10.514Z,55.45
2018-07-22T22:40:41.529Z,55.62
2018-07-22T22:43:25.802Z,55.91
2018-07-22T22:45:55.754Z,56.05
2018-07-22T22:48:25.569Z,55.61
2018-07-22T22:50:55.528Z,56.20
2018-07-22T22:53:25.343Z,56.18
2018-07-22T22:55:55.254Z,56.30
2018-07-22T22:58:35.571Z,56.36
2018-07-22T23:01:05.836Z,56.49
2018-07-22T23:03:35.677Z,56.51
2018-07-22T23:06:05.793Z,56.62
2018-07-22T23:08:36.190Z,56.38
2018-07-22T23:11:06.437Z,56.52
2018-07-22T23:13:36.230Z,56.93
2018-07-22T23:16:06.374Z,56.69
2018-07-22T23:18:36.257Z,57.02
2018-07-22T23:21:07.821Z,57.01
2018-07-22T23:23:37.629Z,56.94
2018-07-22T23:26:07.540Z,57.12
2018-07-22T23:28:37.486Z,56.94
2018-07-22T23:31:07.368Z,57.13
2018-07-22T23:33:37.450Z,57.54
2018-07-22T23:36:07.424Z,57.97
2018-07-22T23:38:37.345Z,57.88
2018-07-22T23:41:07.500Z,58.37
2018-07-22T23:43:37.359Z,58.29
2018-07-22T23:46:07.905Z,58.29
2018-07-22T23:48:38.770Z,58.55
2018-07-22T23:51:09.738Z,58.47
2018-07-22T23:53:40.528Z,58.47
2018-07-22T23:56:12.654Z,58.54
2018-07-22T23:58:42.825Z,58.76
